Time;durP1;ratioP1;P1;durP2;ratioP2;P2;SDS_P1;SDS_P2;PMS_P1;PMS_P2;Temp;Humidity;BMP_temperature;BMP_pressure;BME280_temperature;BME280_humidity;BME280_pressure;Samples;Min_cycle;Max_cycle;Signal;HPM_P1;HPM_P2
2021/07/19 00:01:36;;;;;;;3.63;1.88;;;22.90;97.80;;;;;;5016127;28;20032;-68
2021/07/19 00:04:02;;;;;;;3.05;2.33;;;22.80;98.00;;;;;;5033644;28;20038;-69
2021/07/19 00:06:28;;;;;;;2.50;1.80;;;22.80;98.20;;;;;;5015838;28;20034;-68
2021/07/19 00:08:53;;;;;;;3.05;2.00;;;22.70;98.20;;;;;;5032862;28;20085;-68
2021/07/19 00:11:19;;;;;;;4.93;1.92;;;22.60;98.30;;;;;;5015539;28;20025;-69
2021/07/19 00:13:45;;;;;;;4.97;2.03;;;22.50;98.50;;;;;;5033849;28;20087;-70
2021/07/19 00:16:12;;;;;;;4.85;2.15;;;22.50;98.70;;;;;;5015361;28;20029;-69
2021/07/19 00:18:37;;;;;;;3.30;1.77;;;22.50;98.70;;;;;;5033637;28;20113;-69
2021/07/19 00:21:04;;;;;;;2.45;1.70;;;22.50;98.90;;;;;;5015205;28;20120;-68
2021/07/19 00:23:29;;;;;;;2.92;2.30;;;22.40;98.80;;;;;;5016086;28;20041;-69
2021/07/19 00:25:55;;;;;;;6.15;1.98;;;22.40;98.90;;;;;;5015438;28;20026;-69
2021/07/19 00:28:21;;;;;;;4.93;2.45;;;22.40;99.00;;;;;;5033645;28;20406;-68
2021/07/19 00:30:47;;;;;;;4.45;2.10;;;22.50;98.90;;;;;;5033355;28;20021;-77
2021/07/19 00:33:13;;;;;;;1.77;1.63;;;22.50;99.00;;;;;;5033054;28;20104;-69
2021/07/19 00:35:40;;;;;;;10.25;2.10;;;22.40;99.10;;;;;;5033111;28;20099;-69
2021/07/19 00:38:06;;;;;;;5.65;2.10;;;22.30;99.20;;;;;;5031978;28;20086;-69
2021/07/19 00:40:35;;;;;;;5.05;2.17;;;22.40;99.10;;;;;;5032595;28;20145;-67
2021/07/19 00:43:01;;;;;;;3.95;2.22;;;22.30;99.20;;;;;;5032801;28;20045;-69
2021/07/19 00:45:28;;;;;;;7.25;2.00;;;22.30;99.40;;;;;;5015150;28;20475;-69
2021/07/19 00:47:56;;;;;;;4.07;2.17;;;22.30;99.30;;;;;;5014955;28;20029;-68
2021/07/19 00:50:24;;;;;;;4.45;2.00;;;22.20;99.50;;;;;;5033420;28;20164;-68
2021/07/19 00:52:56;;;;;;;3.95;2.10;;;22.20;99.40;;;;;;5032669;28;20025;-68
2021/07/19 00:55:25;;;;;;;6.50;2.72;;;22.20;99.30;;;;;;5032217;28;20045;-68
2021/07/19 00:57:54;;;;;;;4.13;2.20;;;22.20;99.20;;;;;;5013961;28;20040;-69
2021/07/19 01:00:20;;;;;;;6.28;2.38;;;22.30;99.30;;;;;;5032254;28;20044;-68
2021/07/19 01:02:49;;;;;;;4.13;2.47;;;22.20;99.20;;;;;;5032601;28;20022;-69
2021/07/19 01:05:16;;;;;;;4.53;2.38;;;22.10;99.70;;;;;;5015146;28;20022;-68
2021/07/19 01:07:43;;;;;;;3.97;2.22;;;22.00;99.80;;;;;;5032936;28;20055;-67
2021/07/19 01:10:16;;;;;;;4.47;2.28;;;22.00;99.80;;;;;;5032407;28;20063;-68
2021/07/19 01:12:44;;;;;;;4.18;2.15;;;22.00;99.90;;;;;;5033137;28;20521;-69
2021/07/19 01:15:10;;;;;;;3.45;1.98;;;21.80;99.90;;;;;;5013813;28;20036;-69
2021/07/19 01:17:36;;;;;;;4.82;2.17;;;21.80;99.90;;;;;;5014002;28;20029;-69
2021/07/19 01:20:03;;;;;;;5.45;2.22;;;21.90;99.90;;;;;;5032660;28;20052;-69
2021/07/19 01:22:49;;;;;;;2.70;2.30;;;21.90;99.90;;;;;;5032422;28;20471;-68
2021/07/19 01:25:51;;;;;;;4.85;1.98;;;21.90;99.90;;;;;;5031531;28;20076;-67
2021/07/19 01:28:41;;;;;;;7.35;2.25;;;21.90;99.90;;;;;;5032212;28;20356;-69
2021/07/19 01:31:12;;;;;;;3.55;2.85;;;21.90;99.90;;;;;;5013446;28;20348;-68
2021/07/19 01:33:42;;;;;;;5.57;2.53;;;21.90;99.90;;;;;;5031543;28;20021;-68
2021/07/19 01:36:10;;;;;;;3.63;2.20;;;21.70;99.90;;;;;;5031134;28;20049;-68
2021/07/19 01:38:37;;;;;;;2.38;2.15;;;21.70;99.90;;;;;;5031258;28;20056;-68
2021/07/19 01:41:03;;;;;;;2.38;1.73;;;21.60;99.90;;;;;;5013050;28;20037;-68
2021/07/19 01:43:30;;;;;;;3.05;2.55;;;21.50;99.90;;;;;;5031854;28;20029;-70
2021/07/19 01:45:56;;;;;;;2.88;2.28;;;21.60;99.90;;;;;;4997419;28;20029;-68
2021/07/19 01:48:23;;;;;;;6.07;2.47;;;21.60;99.90;;;;;;5031733;28;20036;-67
2021/07/19 01:50:50;;;;;;;6.40;2.65;;;21.60;99.90;;;;;;5031455;28;20048;-69
2021/07/19 01:53:16;;;;;;;4.43;2.05;;;21.60;99.90;;;;;;5013185;28;20388;-69
2021/07/19 01:55:43;;;;;;;5.03;2.38;;;21.50;99.90;;;;;;5030971;28;20077;-69
2021/07/19 01:58:10;;;;;;;7.00;2.50;;;21.40;99.90;;;;;;5013025;28;20034;-68
2021/07/19 02:00:36;;;;;;;4.30;2.28;;;21.40;99.90;;;;;;5013381;28;20404;-68
2021/07/19 02:03:02;;;;;;;2.85;2.33;;;21.40;99.90;;;;;;5013011;28;20025;-68
2021/07/19 02:05:28;;;;;;;4.18;3.25;;;21.40;99.90;;;;;;5029856;28;20040;-68
2021/07/19 02:07:56;;;;;;;3.75;2.88;;;21.30;99.90;;;;;;5032217;28;20025;-68
2021/07/19 02:10:22;;;;;;;6.68;3.10;;;21.20;99.90;;;;;;5035075;28;20026;-69
2021/07/19 02:12:49;;;;;;;6.07;2.50;;;21.20;99.90;;;;;;5018523;28;20053;-68
2021/07/19 02:15:16;;;;;;;10.40;2.80;;;21.30;99.90;;;;;;5034219;28;20029;-68
2021/07/19 02:17:47;;;;;;;4.15;2.65;;;21.30;99.90;;;;;;5031330;28;20033;-67
2021/07/19 02:20:14;;;;;;;4.18;2.25;;;21.30;99.90;;;;;;5013031;28;20084;-68
2021/07/19 02:22:42;;;;;;;5.90;2.58;;;21.30;99.90;;;;;;5031375;28;20051;-68
2021/07/19 02:25:10;;;;;;;3.30;1.98;;;21.30;99.90;;;;;;5030704;28;20037;-68
2021/07/19 02:27:42;;;;;;;6.78;2.30;;;21.30;99.90;;;;;;5031004;28;20124;-69
2021/07/19 02:30:09;;;;;;;6.93;2.67;;;21.30;99.90;;;;;;5030564;28;20116;-68
2021/07/19 02:32:40;;;;;;;5.00;2.47;;;21.30;99.90;;;;;;5013184;28;20443;-68
2021/07/19 02:35:07;;;;;;;3.53;2.22;;;21.30;99.90;;;;;;5030114;28;20494;-68
2021/07/19 02:37:38;;;;;;;2.42;2.22;;;21.30;99.90;;;;;;5030683;28;20045;-68
2021/07/19 02:40:06;;;;;;;4.25;2.30;;;21.30;99.90;;;;;;5030315;28;20025;-67
2021/07/19 02:42:40;;;;;;;2.92;2.28;;;21.20;99.90;;;;;;5030934;28;20134;-68
2021/07/19 02:45:08;;;;;;;2.72;2.45;;;21.10;99.90;;;;;;5012615;28;20022;-69
2021/07/19 02:47:35;;;;;;;2.58;2.35;;;21.20;99.90;;;;;;5013011;28;20116;-68
2021/07/19 02:50:03;;;;;;;5.75;2.53;;;21.10;99.90;;;;;;5012188;28;20115;-69
2021/07/19 02:52:29;;;;;;;2.45;2.22;;;21.10;99.90;;;;;;5012667;28;20025;-67
2021/07/19 02:54:55;;;;;;;5.25;2.40;;;21.10;99.90;;;;;;5031905;28;20076;-68
2021/07/19 02:57:21;;;;;;;3.00;2.15;;;21.00;99.90;;;;;;5013564;28;20439;-67
2021/07/19 02:59:46;;;;;;;2.85;2.00;;;21.00;99.90;;;;;;5012923;28;20026;-67
2021/07/19 03:02:15;;;;;;;5.45;2.83;;;21.00;99.90;;;;;;5030307;28;20025;-68
2021/07/19 03:04:42;;;;;;;5.32;2.42;;;21.00;99.90;;;;;;5012949;28;20121;-68
2021/07/19 03:07:10;;;;;;;5.07;2.70;;;20.90;99.90;;;;;;5012274;28;20033;-68
2021/07/19 03:09:39;;;;;;;5.90;2.72;;;21.00;99.90;;;;;;5030978;28;20057;-67
2021/07/19 03:12:06;;;;;;;6.55;2.70;;;21.00;99.90;;;;;;5034181;28;20032;-67
2021/07/19 03:14:35;;;;;;;3.75;2.42;;;21.00;99.90;;;;;;5034179;28;20033;-67
2021/07/19 03:17:02;;;;;;;5.13;2.42;;;21.00;99.90;;;;;;5033577;28;20033;-68
2021/07/19 03:19:29;;;;;;;4.03;2.85;;;21.00;99.90;;;;;;5016517;28;20471;-67
2021/07/19 03:21:58;;;;;;;2.35;2.15;;;21.00;99.90;;;;;;5016575;28;20036;-67
2021/07/19 03:24:25;;;;;;;3.78;2.47;;;21.00;99.90;;;;;;5016275;28;20029;-66
2021/07/19 03:26:51;;;;;;;8.60;2.38;;;21.10;99.90;;;;;;5016284;28;20379;-67
2021/07/19 03:29:18;;;;;;;6.47;2.90;;;21.00;99.90;;;;;;5033757;28;20105;-67
2021/07/19 03:31:44;;;;;;;3.47;2.20;;;20.70;99.90;;;;;;5033844;28;20100;-67
2021/07/19 03:34:11;;;;;;;2.83;2.00;;;20.80;99.90;;;;;;5033401;28;20026;-67
2021/07/19 03:36:37;;;;;;;4.68;2.42;;;20.80;99.90;;;;;;5015948;28;20033;-67
2021/07/19 03:39:05;;;;;;;4.38;2.70;;;20.70;99.90;;;;;;5033332;28;20063;-68
2021/07/19 03:41:32;;;;;;;4.30;2.65;;;20.60;99.90;;;;;;5015974;28;20120;-67
2021/07/19 03:43:59;;;;;;;3.58;2.63;;;20.50;99.90;;;;;;5015551;28;20027;-75
2021/07/19 03:46:26;;;;;;;6.53;2.35;;;20.50;99.90;;;;;;5033777;28;20405;-67
2021/07/19 03:48:52;;;;;;;6.15;2.40;;;20.50;99.90;;;;;;5033630;28;20025;-67
2021/07/19 03:51:18;;;;;;;5.45;2.83;;;20.50;99.90;;;;;;5032699;28;20518;-69
2021/07/19 03:53:44;;;;;;;8.10;3.22;;;20.40;99.90;;;;;;5033536;28;20113;-68
2021/07/19 03:56:11;;;;;;;11.75;3.10;;;20.40;99.90;;;;;;5033119;28;20487;-68
2021/07/19 03:58:37;;;;;;;5.43;2.55;;;20.30;99.90;;;;;;5033402;28;20120;-67
2021/07/19 04:01:03;;;;;;;3.10;2.55;;;20.40;99.90;;;;;;5032785;28;20491;-68
2021/07/19 04:03:53;;;;;;;3.58;2.33;;;20.40;99.90;;;;;;5033429;28;20049;-67
2021/07/19 04:06:20;;;;;;;3.50;2.83;;;20.40;99.90;;;;;;5032198;28;20068;-68
2021/07/19 04:08:47;;;;;;;3.95;2.60;;;20.50;99.90;;;;;;5031980;28;20450;-67
2021/07/19 04:11:18;;;;;;;3.85;2.60;;;20.50;99.90;;;;;;5032681;28;20431;-68
2021/07/19 04:13:45;;;;;;;7.55;3.45;;;20.50;99.90;;;;;;5033494;28;20378;-67
2021/07/19 04:16:16;;;;;;;5.75;2.78;;;20.40;99.90;;;;;;5014956;28;20061;-68
2021/07/19 04:18:42;;;;;;;6.18;2.42;;;20.40;99.90;;;;;;5015274;28;20033;-67
2021/07/19 04:21:08;;;;;;;5.15;2.97;;;20.40;99.90;;;;;;5014520;28;20424;-66
2021/07/19 04:23:35;;;;;;;3.15;2.35;;;20.30;99.90;;;;;;5032111;28;20108;-63
2021/07/19 04:26:01;;;;;;;5.82;1.60;;;20.90;99.90;;;;;;5032385;28;20068;-61
2021/07/19 04:28:26;;;;;;;3.50;1.58;;;21.10;99.90;;;;;;5033272;28;20150;-55
2021/07/19 04:30:52;;;;;;;1.67;1.30;;;21.80;99.90;;;;;;5032476;28;20086;-55
2021/07/19 04:33:20;;;;;;;6.32;1.98;;;22.30;99.90;;;;;;5032129;28;20101;-54
2021/07/19 04:35:47;;;;;;;5.57;2.33;;;22.60;99.90;;;;;;5032654;28;20033;-55
2021/07/19 04:38:14;;;;;;;3.65;2.58;;;22.80;99.90;;;;;;5031757;28;20068;-54
2021/07/19 04:40:40;;;;;;;8.95;3.03;;;23.00;99.90;;;;;;5031888;28;20038;-54
2021/07/19 04:43:06;;;;;;;9.90;2.53;;;23.20;99.90;;;;;;5013586;28;20045;-55
2021/07/19 04:45:32;;;;;;;9.75;2.55;;;23.30;99.90;;;;;;5032270;28;20113;-55
2021/07/19 04:47:57;;;;;;;7.70;2.72;;;23.30;99.90;;;;;;5032288;28;20379;-54
2021/07/19 04:50:23;;;;;;;4.53;2.63;;;23.40;99.90;;;;;;5031343;28;20549;-54
2021/07/19 04:52:49;;;;;;;7.57;1.90;;;23.30;99.90;;;;;;5022078;28;20026;-56
2021/07/19 04:55:20;;;;;;;8.95;2.33;;;23.40;99.90;;;;;;5042456;28;20072;-54
2021/07/19 04:57:51;;;;;;;4.90;2.30;;;23.40;99.90;;;;;;5059864;28;20032;-53
2021/07/19 05:00:17;;;;;;;8.52;2.83;;;23.30;99.90;;;;;;5051856;28;20036;-54
2021/07/19 05:02:45;;;;;;;6.95;2.58;;;23.10;99.90;;;;;;5050220;28;20037;-53
2021/07/19 05:05:13;;;;;;;13.45;3.58;;;23.10;99.90;;;;;;5050982;28;20051;-70
2021/07/19 05:07:42;;;;;;;6.53;2.97;;;22.80;99.90;;;;;;5049820;28;20028;-67
2021/07/19 05:10:09;;;;;;;6.80;2.88;;;22.80;99.90;;;;;;5048867;28;20423;-68
2021/07/19 05:12:35;;;;;;;7.55;3.08;;;22.50;99.90;;;;;;5050419;28;20085;-67
2021/07/19 05:15:02;;;;;;;9.07;2.85;;;22.30;99.90;;;;;;5054158;28;20028;-69
2021/07/19 05:17:28;;;;;;;8.73;2.97;;;22.30;99.90;;;;;;5070303;28;20044;-68
2021/07/19 05:19:55;;;;;;;8.25;3.38;;;22.30;99.90;;;;;;5069918;28;20081;-68
2021/07/19 05:22:21;;;;;;;9.60;3.03;;;22.00;99.90;;;;;;5070447;28;20028;-70
2021/07/19 05:24:46;;;;;;;7.20;3.03;;;22.00;99.90;;;;;;5070629;28;20494;-72
2021/07/19 05:27:14;;;;;;;8.13;3.53;;;21.80;99.90;;;;;;5070511;28;20032;-69
2021/07/19 05:29:41;;;;;;;8.07;2.88;;;21.70;99.90;;;;;;5069983;28;20016;-69
2021/07/19 05:32:08;;;;;;;11.05;3.38;;;21.70;99.90;;;;;;5070416;28;20025;-77
2021/07/19 05:34:34;;;;;;;9.23;2.95;;;21.50;99.90;;;;;;5070861;28;20021;-68
2021/07/19 05:37:01;;;;;;;5.25;3.25;;;21.50;99.90;;;;;;5069633;28;20109;-68
2021/07/19 05:39:27;;;;;;;3.78;3.20;;;21.50;99.90;;;;;;5068283;28;20500;-68
2021/07/19 05:41:53;;;;;;;9.02;3.45;;;21.50;99.90;;;;;;5069654;28;20510;-67
2021/07/19 05:44:19;;;;;;;8.20;3.72;;;21.40;99.90;;;;;;5070966;28;20048;-68
2021/07/19 05:46:45;;;;;;;6.03;3.45;;;21.50;99.90;;;;;;5054379;28;20477;-68
2021/07/19 05:49:11;;;;;;;5.00;3.40;;;21.50;99.90;;;;;;5059797;28;20037;-61
2021/07/19 05:51:37;;;;;;;5.53;2.83;;;21.80;99.90;;;;;;5053395;28;20036;-59
2021/07/19 05:54:03;;;;;;;5.22;2.47;;;22.20;99.90;;;;;;5060935;28;20029;-58
2021/07/19 05:56:32;;;;;;;5.70;3.00;;;22.30;99.90;;;;;;5012290;28;20033;-68
2021/07/19 05:58:58;;;;;;;5.72;2.78;;;22.30;99.90;;;;;;5013105;28;20375;-68
2021/07/19 06:01:24;;;;;;;15.23;3.50;;;22.20;99.90;;;;;;5032779;28;20021;-70
2021/07/19 06:03:50;;;;;;;10.60;3.50;;;21.80;99.90;;;;;;5042276;28;20486;-69
2021/07/19 06:06:15;;;;;;;7.45;3.38;;;21.80;99.90;;;;;;5049762;28;20063;-68
2021/07/19 06:08:41;;;;;;;14.88;2.88;;;21.70;99.90;;;;;;5025212;28;20099;-71
2021/07/19 06:11:07;;;;;;;6.60;3.00;;;21.80;99.90;;;;;;5041038;28;20071;-70
2021/07/19 06:13:32;;;;;;;5.65;2.85;;;21.70;99.90;;;;;;5022113;28;20037;-69
2021/07/19 06:15:58;;;;;;;4.60;2.80;;;21.80;99.90;;;;;;5020356;28;20033;-67
2021/07/19 06:18:24;;;;;;;3.97;2.45;;;21.80;99.90;;;;;;5022382;28;20033;-69
2021/07/19 06:20:49;;;;;;;5.22;2.95;;;21.70;99.90;;;;;;5041297;28;20493;-69
2021/07/19 06:23:15;;;;;;;6.55;3.13;;;21.70;99.90;;;;;;5038625;28;20053;-70
2021/07/19 06:25:42;;;;;;;7.38;3.63;;;21.80;99.90;;;;;;5039343;28;20125;-71
2021/07/19 06:28:09;;;;;;;8.88;3.33;;;21.90;99.90;;;;;;5036123;28;20475;-68
2021/07/19 06:30:36;;;;;;;7.70;3.00;;;21.80;99.90;;;;;;5021272;28;20112;-70
2021/07/19 06:33:02;;;;;;;6.65;2.92;;;21.90;99.90;;;;;;5019814;28;20379;-70
2021/07/19 06:35:28;;;;;;;5.15;3.20;;;21.80;99.90;;;;;;5040250;28;20030;-69
2021/07/19 06:37:55;;;;;;;3.72;2.83;;;21.90;99.90;;;;;;5017237;28;20040;-68
2021/07/19 06:40:20;;;;;;;5.32;2.40;;;21.90;99.90;;;;;;5037216;28;20025;-69
2021/07/19 06:42:47;;;;;;;4.53;2.70;;;22.00;99.90;;;;;;5036416;28;20494;-69
2021/07/19 06:45:14;;;;;;;5.72;2.65;;;22.00;99.90;;;;;;5019779;28;20040;-71
2021/07/19 06:47:42;;;;;;;8.57;3.40;;;22.00;99.90;;;;;;5041919;28;20021;-70
2021/07/19 06:50:10;;;;;;;7.32;3.83;;;21.90;99.90;;;;;;5023826;28;20029;-75
2021/07/19 06:52:39;;;;;;;7.05;3.33;;;22.00;99.90;;;;;;5043587;28;20025;-70
2021/07/19 06:55:07;;;;;;;4.85;2.85;;;22.10;99.90;;;;;;5042218;28;20103;-69
2021/07/19 06:57:33;;;;;;;6.00;2.47;;;22.10;99.90;;;;;;5059583;28;20173;-67
2021/07/19 06:59:59;;;;;;;8.85;3.33;;;22.20;99.90;;;;;;5063131;28;20028;-71
2021/07/19 07:02:25;;;;;;;5.43;2.67;;;22.10;99.90;;;;;;5062612;28;20111;-69
2021/07/19 07:04:51;;;;;;;4.25;2.10;;;22.20;99.90;;;;;;5061212;28;20021;-66
2021/07/19 07:07:17;;;;;;;7.47;2.75;;;22.30;99.90;;;;;;5058075;28;20032;-69
2021/07/19 07:09:43;;;;;;;5.35;2.60;;;22.50;99.90;;;;;;5061813;28;20036;-66
2021/07/19 07:12:08;;;;;;;4.00;2.40;;;22.40;99.90;;;;;;5061770;28;20086;-69
2021/07/19 07:14:34;;;;;;;6.70;2.30;;;22.80;99.90;;;;;;5060957;28;20373;-69
2021/07/19 07:17:00;;;;;;;3.67;2.22;;;22.90;99.90;;;;;;5059795;28;20365;-66
2021/07/19 07:19:26;;;;;;;5.47;2.30;;;23.10;99.70;;;;;;5060723;28;20032;-67
2021/07/19 07:21:52;;;;;;;9.38;3.10;;;23.10;99.70;;;;;;5061272;28;20078;-69
2021/07/19 07:24:18;;;;;;;5.28;2.63;;;23.10;99.30;;;;;;5060045;28;20024;-67
2021/07/19 07:26:44;;;;;;;6.22;3.08;;;23.20;99.00;;;;;;5061885;28;20389;-69
2021/07/19 07:29:09;;;;;;;7.57;2.42;;;23.20;99.10;;;;;;5063115;28;20033;-69
2021/07/19 07:31:35;;;;;;;6.35;2.28;;;23.30;98.80;;;;;;5054252;28;20044;-70
2021/07/19 07:34:01;;;;;;;7.10;2.80;;;23.40;99.30;;;;;;5063508;28;20111;-68
2021/07/19 07:36:29;;;;;;;7.22;2.20;;;23.50;97.40;;;;;;5058504;28;20052;-69
2021/07/19 07:38:56;;;;;;;5.30;2.47;;;23.50;98.40;;;;;;5057507;28;20025;-68
2021/07/19 07:41:22;;;;;;;4.32;2.80;;;23.60;98.40;;;;;;5059222;28;20021;-70
2021/07/19 07:43:48;;;;;;;5.15;2.38;;;23.50;97.70;;;;;;5059890;28;20086;-69
2021/07/19 07:46:15;;;;;;;6.45;2.75;;;23.50;97.70;;;;;;5070626;28;20047;-69
2021/07/19 07:48:41;;;;;;;5.18;2.35;;;23.50;97.60;;;;;;5073493;28;20063;-68
2021/07/19 07:51:07;;;;;;;5.47;2.53;;;23.70;97.90;;;;;;5073106;28;20033;-71
2021/07/19 07:53:34;;;;;;;7.15;2.78;;;23.80;96.60;;;;;;5073009;28;20116;-69
2021/07/19 07:56:00;;;;;;;7.55;2.95;;;23.90;97.40;;;;;;5045370;28;20108;-70
2021/07/19 07:58:27;;;;;;;5.50;2.30;;;23.90;96.90;;;;;;5021201;28;20041;-69
2021/07/19 08:00:53;;;;;;;4.43;2.55;;;24.00;96.50;;;;;;5022709;28;20156;-60
2021/07/19 08:03:20;;;;;;;8.65;2.42;;;24.20;97.60;;;;;;5045274;28;20071;-59
2021/07/19 08:05:46;;;;;;;5.85;3.30;;;24.20;96.10;;;;;;5034012;28;20049;-59
2021/07/19 08:08:12;;;;;;;5.50;3.10;;;24.40;96.50;;;;;;5014500;28;20037;-63
2021/07/19 08:10:38;;;;;;;19.30;5.22;;;24.50;96.80;;;;;;5015198;28;20033;-59
2021/07/19 08:13:03;;;;;;;25.58;5.25;;;24.40;97.80;;;;;;5032657;28;20033;-59
2021/07/19 08:15:32;;;;;;;7.30;2.83;;;24.30;99.90;;;;;;5032580;28;20111;-69
2021/07/19 08:17:57;;;;;;;7.57;3.17;;;24.10;96.50;;;;;;5015389;28;20029;-69
2021/07/19 08:20:23;;;;;;;6.90;2.80;;;24.10;95.60;;;;;;5020669;28;20052;-70
2021/07/19 08:22:49;;;;;;;6.57;3.25;;;24.10;95.70;;;;;;5042268;28;20087;-70
2021/07/19 08:25:16;;;;;;;9.55;2.80;;;24.40;95.50;;;;;;5042975;28;20029;-70
2021/07/19 08:27:42;;;;;;;9.85;3.53;;;24.70;95.00;;;;;;5014686;28;20061;-69
2021/07/19 08:30:09;;;;;;;7.13;2.97;;;25.00;94.50;;;;;;5015354;28;20444;-68
2021/07/19 08:32:35;;;;;;;7.93;3.65;;;25.00;94.50;;;;;;5015224;28;20064;-68
2021/07/19 08:35:00;;;;;;;5.55;3.13;;;25.00;94.00;;;;;;5032835;28;20053;-70
2021/07/19 08:37:27;;;;;;;6.80;3.25;;;25.40;94.10;;;;;;5014613;28;20482;-69
2021/07/19 08:39:54;;;;;;;10.45;3.45;;;25.70;93.70;;;;;;5015654;28;20033;-70
2021/07/19 08:42:19;;;;;;;9.43;3.42;;;25.70;93.60;;;;;;5033502;28;20036;-69
2021/07/19 08:44:45;;;;;;;6.97;3.20;;;25.90;93.00;;;;;;5033346;28;20022;-69
2021/07/19 08:47:13;;;;;;;4.47;3.17;;;25.90;92.80;;;;;;5033768;28;20044;-70
2021/07/19 08:49:40;;;;;;;7.15;3.20;;;25.90;93.30;;;;;;5035051;28;20048;-70
2021/07/19 08:52:07;;;;;;;9.25;3.35;;;26.00;92.90;;;;;;5033087;28;20026;-70
2021/07/19 08:54:37;;;;;;;6.57;3.75;;;25.90;93.00;;;;;;5024365;28;20045;-70
2021/07/19 08:57:04;;;;;;;5.30;3.28;;;26.10;92.50;;;;;;5053402;28;20542;-70
2021/07/19 08:59:31;;;;;;;8.35;3.88;;;26.00;92.40;;;;;;5052274;28;20416;-68
2021/07/19 09:02:01;;;;;;;7.63;4.47;;;26.20;92.00;;;;;;5054998;28;20203;-68
2021/07/19 09:04:27;;;;;;;8.95;4.15;;;26.20;92.20;;;;;;5053594;28;20021;-69
2021/07/19 09:06:53;;;;;;;5.70;4.75;;;26.40;91.70;;;;;;5053770;28;20039;-68
2021/07/19 09:09:48;;;;;;;8.35;4.68;;;26.50;91.30;;;;;;5049874;28;20029;-69
2021/07/19 09:12:14;;;;;;;12.48;4.07;;;26.50;91.60;;;;;;5049074;28;20503;-68
2021/07/19 09:14:46;;;;;;;9.57;5.18;;;26.70;91.10;;;;;;5052583;28;20060;-71
2021/07/19 09:17:23;;;;;;;6.18;4.43;;;26.70;90.30;;;;;;5050208;28;20075;-74
2021/07/19 09:19:49;;;;;;;9.48;5.60;;;26.80;90.50;;;;;;5052337;28;20478;-69
2021/07/19 09:22:29;;;;;;;14.02;5.85;;;26.50;90.40;;;;;;5051522;28;20435;-69
2021/07/19 09:25:07;;;;;;;8.40;4.97;;;26.70;90.70;;;;;;5050118;28;20055;-70
2021/07/19 09:27:32;;;;;;;10.48;6.22;;;26.70;90.20;;;;;;5051216;28;20123;-69
2021/07/19 09:29:58;;;;;;;7.80;5.63;;;26.70;90.10;;;;;;5050135;28;20048;-69
2021/07/19 09:32:24;;;;;;;9.70;5.82;;;27.00;90.00;;;;;;5050906;28;20029;-70
2021/07/19 09:34:49;;;;;;;11.00;5.22;;;27.00;90.00;;;;;;5051693;28;20057;-70
2021/07/19 09:37:16;;;;;;;8.40;6.68;;;27.20;89.70;;;;;;5050673;28;20032;-69
2021/07/19 09:39:50;;;;;;;8.38;6.25;;;27.30;87.90;;;;;;5049151;28;20052;-69
2021/07/19 09:42:22;;;;;;;9.70;7.07;;;27.50;88.30;;;;;;5031871;28;20120;-70
2021/07/19 09:44:59;;;;;;;11.85;6.88;;;27.90;88.60;;;;;;5032405;28;20028;-69
2021/07/19 09:47:36;;;;;;;7.32;5.88;;;27.80;86.10;;;;;;5048609;28;20037;-68
2021/07/19 09:50:12;;;;;;;14.25;6.50;;;27.90;84.50;;;;;;5048699;28;20070;-68
2021/07/19 09:52:37;;;;;;;7.10;6.40;;;28.00;84.20;;;;;;5031512;28;20025;-67
2021/07/19 09:55:04;;;;;;;10.10;5.85;;;28.00;84.40;;;;;;5048852;28;20126;-68
2021/07/19 09:57:30;;;;;;;6.88;5.95;;;28.00;85.10;;;;;;5031751;28;20091;-68
2021/07/19 09:59:58;;;;;;;9.20;5.85;;;28.30;85.30;;;;;;5032291;28;20037;-67
2021/07/19 10:02:51;;;;;;;7.50;5.68;;;28.40;83.40;;;;;;5031689;28;20029;-69
2021/07/19 10:05:28;;;;;;;13.40;6.88;;;28.60;84.80;;;;;;5044640;28;20078;-69
2021/07/19 10:07:55;;;;;;;7.78;6.25;;;28.60;84.10;;;;;;5049531;28;20071;-69
2021/07/19 10:10:35;;;;;;;8.98;7.47;;;28.40;84.40;;;;;;5037344;28;20470;-69
2021/07/19 10:13:03;;;;;;;10.65;7.43;;;28.30;83.60;;;;;;5051281;28;20032;-69
2021/07/19 10:15:31;;;;;;;8.77;6.53;;;28.50;84.20;;;;;;5049334;28;20140;-68
2021/07/19 10:17:58;;;;;;;12.60;6.82;;;28.60;84.20;;;;;;5051008;28;20032;-67
2021/07/19 10:20:24;;;;;;;12.25;7.45;;;28.80;83.60;;;;;;5050030;28;20093;-68
2021/07/19 10:22:50;;;;;;;11.85;7.93;;;29.00;82.30;;;;;;5051542;28;20420;-68
2021/07/19 10:25:16;;;;;;;10.68;7.63;;;29.30;82.00;;;;;;5052509;28;20467;-75
2021/07/19 10:27:43;;;;;;;8.23;7.35;;;29.40;81.10;;;;;;5051416;28;20037;-68
2021/07/19 10:30:09;;;;;;;12.27;6.85;;;29.40;81.00;;;;;;5051028;28;20021;-67
2021/07/19 10:32:37;;;;;;;8.80;7.15;;;29.50;80.60;;;;;;5049405;28;20317;-69
2021/07/19 10:35:04;;;;;;;14.00;7.07;;;29.30;79.50;;;;;;5050080;28;20218;-67
2021/07/19 10:37:34;;;;;;;13.02;7.10;;;29.60;81.50;;;;;;5052879;28;20124;-68
2021/07/19 10:40:05;;;;;;;9.65;7.45;;;29.60;80.50;;;;;;5050979;28;20053;-69
2021/07/19 10:42:38;;;;;;;12.80;7.50;;;29.80;79.00;;;;;;5032680;28;20029;-69
2021/07/19 10:45:17;;;;;;;11.65;7.90;;;29.70;77.50;;;;;;5052709;28;20055;-70
2021/07/19 10:47:53;;;;;;;8.00;7.15;;;29.60;78.80;;;;;;5051941;28;20076;-70
2021/07/19 10:50:26;;;;;;;9.93;7.05;;;29.60;78.20;;;;;;5051828;28;20358;-70
2021/07/19 10:52:55;;;;;;;9.75;7.93;;;29.60;77.70;;;;;;5049476;28;20523;-69
2021/07/19 10:55:30;;;;;;;9.25;7.68;;;29.60;77.10;;;;;;5036393;28;20132;-69
2021/07/19 10:58:17;;;;;;;9.73;8.18;;;29.70;77.50;;;;;;5030768;28;20072;-69
2021/07/19 11:00:45;;;;;;;9.65;7.82;;;29.70;78.00;;;;;;5013059;28;20030;-69
2021/07/19 11:03:13;;;;;;;13.93;7.63;;;29.90;77.60;;;;;;5030537;28;20037;-68
2021/07/19 11:05:41;;;;;;;11.40;7.97;;;30.00;77.60;;;;;;5012807;28;20557;-69
2021/07/19 11:08:23;;;;;;;9.75;8.50;;;29.90;76.80;;;;;;5013736;28;20133;-69
2021/07/19 11:10:49;;;;;;;16.33;8.73;;;30.00;76.90;;;;;;5032735;28;20057;-71
2021/07/19 11:13:33;;;;;;;12.27;9.18;;;30.30;76.50;;;;;;5032834;28;20494;-69
2021/07/19 11:16:00;;;;;;;9.27;8.35;;;30.30;77.00;;;;;;5013594;28;20075;-69
2021/07/19 11:18:29;;;;;;;11.27;9.13;;;30.50;76.20;;;;;;5030534;28;20021;-69
2021/07/19 11:21:01;;;;;;;11.18;8.25;;;30.00;75.60;;;;;;5013686;28;20040;-68
2021/07/19 11:23:34;;;;;;;12.43;8.55;;;29.70;75.50;;;;;;5014194;28;20080;-70
2021/07/19 11:26:03;;;;;;;10.40;8.38;;;30.00;75.90;;;;;;5031758;28;20029;-69
2021/07/19 11:28:38;;;;;;;10.27;8.98;;;29.80;74.80;;;;;;5012669;28;20029;-69
2021/07/19 11:31:19;;;;;;;10.95;9.20;;;30.30;76.10;;;;;;5031913;28;20021;-69
2021/07/19 11:33:56;;;;;;;10.02;8.50;;;30.00;74.30;;;;;;5034617;28;20092;-69
2021/07/19 11:36:28;;;;;;;11.07;8.98;;;30.30;73.50;;;;;;5015921;28;20029;-69
2021/07/19 11:38:55;;;;;;;12.02;9.82;;;30.40;73.40;;;;;;5034444;28;20507;-68
2021/07/19 11:41:25;;;;;;;10.50;9.07;;;30.40;73.70;;;;;;5015897;28;20032;-70
2021/07/19 11:43:56;;;;;;;10.48;8.98;;;30.10;74.10;;;;;;5016575;28;20025;-69
2021/07/19 11:46:37;;;;;;;14.50;9.20;;;30.10;74.20;;;;;;5016281;28;20408;-70
2021/07/19 11:49:12;;;;;;;11.25;8.73;;;30.30;73.40;;;;;;5017974;28;20053;-69
2021/07/19 11:51:39;;;;;;;11.25;8.75;;;30.20;74.40;;;;;;5038312;28;20029;-70
2021/07/19 11:54:05;;;;;;;12.35;10.27;;;30.40;74.60;;;;;;5020406;28;20030;-70
2021/07/19 11:56:31;;;;;;;12.40;9.18;;;30.60;74.00;;;;;;5035191;28;20029;-69
2021/07/19 11:59:00;;;;;;;14.93;9.63;;;30.80;72.90;;;;;;5016320;28;20076;-69
2021/07/19 12:01:30;;;;;;;11.88;9.27;;;30.60;72.50;;;;;;5032885;28;20025;-68
2021/07/19 12:03:56;;;;;;;10.95;9.55;;;30.80;72.60;;;;;;5015886;28;20026;-69
2021/07/19 12:06:24;;;;;;;15.40;8.70;;;30.90;72.40;;;;;;5015386;28;20116;-70
2021/07/19 12:08:55;;;;;;;11.38;8.52;;;31.00;72.70;;;;;;5014898;28;20029;-69
2021/07/19 12:11:22;;;;;;;12.02;9.30;;;30.80;73.00;;;;;;5034261;28;20033;-70
2021/07/19 12:13:48;;;;;;;10.45;9.20;;;31.20;73.50;;;;;;5033364;28;20099;-68
2021/07/19 12:16:15;;;;;;;10.32;9.32;;;31.40;72.20;;;;;;5033627;28;20033;-69
2021/07/19 12:18:42;;;;;;;10.88;8.95;;;31.20;72.60;;;;;;5015238;28;20429;-70
2021/07/19 12:21:29;;;;;;;12.10;9.20;;;31.20;73.30;;;;;;5016116;28;20045;-68
2021/07/19 12:24:00;;;;;;;14.02;9.60;;;31.10;71.80;;;;;;5033383;28;20095;-68
2021/07/19 12:26:31;;;;;;;12.25;9.50;;;30.80;72.00;;;;;;5032866;28;20418;-69
2021/07/19 12:29:03;;;;;;;11.05;9.18;;;31.00;72.00;;;;;;5033183;28;20515;-69
2021/07/19 12:31:41;;;;;;;12.95;9.30;;;31.00;71.90;;;;;;5015403;28;20030;-70
2021/07/19 12:34:09;;;;;;;14.52;8.98;;;31.10;73.70;;;;;;5034837;28;20078;-69
2021/07/19 12:36:36;;;;;;;11.35;9.02;;;31.30;71.40;;;;;;5015903;28;20080;-69
2021/07/19 12:39:14;;;;;;;15.40;10.13;;;31.00;71.10;;;;;;5033706;28;20088;-70
2021/07/19 12:41:40;;;;;;;15.98;9.10;;;30.70;73.30;;;;;;5014881;28;20033;-70
2021/07/19 12:44:08;;;;;;;16.38;10.20;;;30.90;74.10;;;;;;5032760;28;20029;-70
2021/07/19 12:46:37;;;;;;;11.57;9.63;;;30.90;72.10;;;;;;5015207;28;20053;-70
2021/07/19 12:49:03;;;;;;;11.35;9.57;;;31.10;71.20;;;;;;5015524;28;20122;-69
2021/07/19 12:51:29;;;;;;;12.90;10.30;;;30.90;71.00;;;;;;5032508;28;20052;-70